createdAt,value
2023-04-24T00:02:02.003Z,13.48
2023-04-24T00:04:29.010Z,13.85
2023-04-24T00:06:58.205Z,13.57
2023-04-24T00:09:25.621Z,14.23
2023-04-24T00:11:53.126Z,13.07
2023-04-24T00:14:20.121Z,13.38
2023-04-24T00:16:47.133Z,13.77
2023-04-24T00:19:14.139Z,14.73
2023-04-24T00:21:42.569Z,14.45
2023-04-24T00:24:12.759Z,13.63
2023-04-24T00:26:39.696Z,13.93
2023-04-24T00:29:06.556Z,15.50
2023-04-24T00:31:35.880Z,14.60
2023-04-24T00:34:04.276Z,14.57
2023-04-24T00:36:31.963Z,15.32
2023-04-24T00:38:59.115Z,17.10
2023-04-24T00:41:26.792Z,16.25
2023-04-24T00:43:54.024Z,15.70
2023-04-24T00:46:21.941Z,15.32
2023-04-24T00:48:48.879Z,16.23
2023-04-24T00:51:15.793Z,15.13
2023-04-24T00:53:42.959Z,14.77
2023-04-24T00:56:10.550Z,15.30
2023-04-24T00:58:37.748Z,14.52
2023-04-24T01:01:08.221Z,14.82
2023-04-24T01:03:38.210Z,15.32
2023-04-24T01:06:06.557Z,15.23
2023-04-24T01:08:35.960Z,15.30
2023-04-24T01:11:06.013Z,15.35
2023-04-24T01:13:34.391Z,16.35
2023-04-24T01:16:02.286Z,17.38
2023-04-24T01:18:29.832Z,15.90
2023-04-24T01:21:03.557Z,15.48
2023-04-24T01:23:30.695Z,16.17
2023-04-24T01:25:57.854Z,16.08
2023-04-24T01:28:24.851Z,16.60
2023-04-24T01:30:51.969Z,16.58
2023-04-24T01:33:19.394Z,16.85
2023-04-24T01:35:46.750Z,16.35
2023-04-24T01:38:13.886Z,16.92
2023-04-24T01:40:41.064Z,17.08
2023-04-24T01:43:08.612Z,17.52
2023-04-24T01:45:35.671Z,18.02
2023-04-24T01:48:02.952Z,17.70
2023-04-24T01:50:29.873Z,17.80
2023-04-24T01:52:56.811Z,18.40
2023-04-24T01:55:23.811Z,19.58
2023-04-24T01:57:53.421Z,19.83
2023-04-24T02:00:20.381Z,19.85
2023-04-24T02:02:48.641Z,19.27
2023-04-24T02:05:16.094Z,19.63
2023-04-24T02:07:43.073Z,19.13
2023-04-24T02:10:11.123Z,20.70
2023-04-24T02:12:38.066Z,20.23
2023-04-24T02:15:06.219Z,19.85
2023-04-24T02:17:33.149Z,19.38
2023-04-24T02:20:00.050Z,18.88
2023-04-24T02:22:27.017Z,20.05
2023-04-24T02:24:53.948Z,19.45
2023-04-24T02:27:20.851Z,19.60
2023-04-24T02:29:47.792Z,19.20
2023-04-24T02:32:16.596Z,18.85
2023-04-24T02:34:43.999Z,17.92
2023-04-24T02:37:10.905Z,19.02
2023-04-24T02:39:37.777Z,19.17
2023-04-24T02:42:05.016Z,18.85
2023-04-24T02:44:31.897Z,18.75
2023-04-24T02:46:58.799Z,19.40
2023-04-24T02:49:25.867Z,19.92
2023-04-24T02:51:52.779Z,19.42
2023-04-24T02:54:19.642Z,19.08
2023-04-24T02:56:46.554Z,20.38
2023-04-24T02:59:14.578Z,21.02
2023-04-24T03:01:41.649Z,20.60
2023-04-24T03:04:08.897Z,20.92
2023-04-24T03:06:36.491Z,20.98
2023-04-24T03:09:04.709Z,20.73
2023-04-24T03:11:31.620Z,21.27
2023-04-24T03:13:58.495Z,20.73
2023-04-24T03:16:25.445Z,21.13
2023-04-24T03:18:53.094Z,21.00
2023-04-24T03:21:22.160Z,20.08
2023-04-24T03:23:49.036Z,21.48
2023-04-24T03:26:15.954Z,20.65
2023-04-24T03:28:43.214Z,20.83
2023-04-24T03:31:10.349Z,22.27
2023-04-24T03:33:37.279Z,21.23
2023-04-24T03:36:05.960Z,22.40
2023-04-24T03:38:32.910Z,22.48
2023-04-24T03:40:59.830Z,22.60
2023-04-24T03:43:28.309Z,23.08
2023-04-24T03:45:55.321Z,22.88
2023-04-24T03:48:22.236Z,22.80
2023-04-24T03:50:49.102Z,22.05
2023-04-24T03:53:16.225Z,23.15
2023-04-24T03:55:43.273Z,22.58
2023-04-24T03:58:10.137Z,24.10
2023-04-24T04:00:38.448Z,23.10
2023-04-24T04:03:05.671Z,24.55
2023-04-24T04:05:32.851Z,24.25
2023-04-24T04:07:59.723Z,24.33
2023-04-24T04:10:28.374Z,24.17
2023-04-24T04:12:55.368Z,25.00
2023-04-24T04:15:22.220Z,25.60
2023-04-24T04:17:49.566Z,26.50
2023-04-24T04:20:16.576Z,25.02
2023-04-24T04:22:44.646Z,26.08
2023-04-24T04:25:12.546Z,26.17
2023-04-24T04:27:39.945Z,26.67
2023-04-24T04:30:07.742Z,26.83
2023-04-24T04:32:35.945Z,25.60
2023-04-24T04:35:06.092Z,26.77
2023-04-24T04:37:34.560Z,26.92
2023-04-24T04:40:02.512Z,26.10
2023-04-24T04:42:29.771Z,26.77
2023-04-24T04:44:58.437Z,27.73
2023-04-24T04:47:25.838Z,26.63
2023-04-24T04:49:52.905Z,26.95
2023-04-24T04:52:20.462Z,27.15
2023-04-24T04:54:47.409Z,28.33
2023-04-24T04:57:14.368Z,28.63
2023-04-24T04:59:42.351Z,29.48
2023-04-24T05:02:10.703Z,29.50
2023-04-24T05:04:37.752Z,29.80
2023-04-24T05:07:04.984Z,31.27
2023-04-24T05:09:31.860Z,31.17
2023-04-24T05:11:58.719Z,31.10
2023-04-24T05:14:25.632Z,30.38
2023-04-24T05:16:52.591Z,29.75
2023-04-24T05:19:19.591Z,30.95
2023-04-24T05:21:46.584Z,30.52
2023-04-24T05:24:13.562Z,30.02
2023-04-24T05:26:40.463Z,31.30
2023-04-24T05:29:07.941Z,31.20
2023-04-24T05:31:35.009Z,32.65
2023-04-24T05:34:02.021Z,32.30
2023-04-24T05:36:29.643Z,31.10
2023-04-24T05:38:56.597Z,32.10
2023-04-24T05:41:23.725Z,31.88
2023-04-24T05:43:50.736Z,31.77
2023-04-24T05:46:17.751Z,32.92
2023-04-24T05:48:44.732Z,32.33
2023-04-24T05:51:11.587Z,32.38
2023-04-24T05:53:38.453Z,32.80
2023-04-24T05:56:05.742Z,32.90
2023-04-24T05:58:32.611Z,32.13
2023-04-24T06:01:01.857Z,33.50
2023-04-24T06:03:28.914Z,34.42
2023-04-24T06:05:56.116Z,33.70
2023-04-24T06:08:22.984Z,33.80
2023-04-24T06:10:49.940Z,33.78
2023-04-24T06:13:17.015Z,33.15
2023-04-24T06:15:44.852Z,33.80
2023-04-24T06:18:11.799Z,33.20
2023-04-24T06:20:38.888Z,33.75
2023-04-24T06:23:05.863Z,34.58
2023-04-24T06:25:33.065Z,34.28
2023-04-24T06:28:00.377Z,33.28
2023-04-24T06:30:28.933Z,33.33
2023-04-24T06:32:58.744Z,35.38
2023-04-24T06:35:30.238Z,35.10
2023-04-24T06:37:57.324Z,35.60
2023-04-24T06:40:24.425Z,35.40
2023-04-24T06:42:51.299Z,36.22
2023-04-24T06:45:18.351Z,37.85
2023-04-24T06:47:45.503Z,36.10
2023-04-24T06:50:12.631Z,36.53
2023-04-24T06:52:39.560Z,35.90
2023-04-24T06:55:07.418Z,33.80
2023-04-24T06:57:34.491Z,33.88
2023-04-24T07:00:01.895Z,34.20
2023-04-24T07:02:28.908Z,35.03
2023-04-24T07:04:55.916Z,34.47
2023-04-24T07:07:25.577Z,35.55
2023-04-24T07:09:52.622Z,36.85
2023-04-24T07:12:21.588Z,37.50
2023-04-24T07:14:49.056Z,36.45
2023-04-24T07:17:15.967Z,38.03
2023-04-24T07:19:43.280Z,36.78
2023-04-24T07:22:12.466Z,36.65
2023-04-24T07:24:39.333Z,34.72
2023-04-24T07:27:06.343Z,35.10
2023-04-24T07:29:33.218Z,35.60
2023-04-24T07:32:02.056Z,34.55
2023-04-24T07:34:30.451Z,34.10
2023-04-24T07:36:57.452Z,31.52
2023-04-24T07:39:24.979Z,31.77
2023-04-24T07:41:51.819Z,31.63
2023-04-24T07:44:18.748Z,32.67
2023-04-24T07:46:48.698Z,30.38
2023-04-24T07:49:18.376Z,30.75
2023-04-24T07:51:47.040Z,29.92
2023-04-24T07:54:14.104Z,30.42
2023-04-24T07:56:43.912Z,30.55
2023-04-24T07:59:12.036Z,31.42
2023-04-24T08:01:39.420Z,31.17
2023-04-24T08:04:06.866Z,31.55
2023-04-24T08:06:34.249Z,30.60
2023-04-24T08:09:01.865Z,30.90
2023-04-24T08:11:29.040Z,28.92
2023-04-24T08:13:56.198Z,31.20
2023-04-24T08:16:25.175Z,28.83
2023-04-24T08:18:52.809Z,25.92
2023-04-24T08:21:20.001Z,26.35
2023-04-24T08:23:47.491Z,26.08
2023-04-24T08:26:15.132Z,26.85
2023-04-24T08:28:42.126Z,26.58
2023-04-24T08:31:09.116Z,26.35
2023-04-24T08:33:36.132Z,25.98
2023-04-24T08:36:07.237Z,24.83
2023-04-24T08:38:35.095Z,23.30
2023-04-24T08:41:02.909Z,23.52
2023-04-24T08:43:29.844Z,22.67
2023-04-24T08:46:00.241Z,24.27
2023-04-24T08:48:31.829Z,25.45
2023-04-24T08:51:00.308Z,23.33
2023-04-24T08:53:27.967Z,24.50
2023-04-24T08:55:57.665Z,23.10
2023-04-24T08:58:27.994Z,26.98
2023-04-24T09:00:59.503Z,23.58
2023-04-24T09:03:29.286Z,22.63
2023-04-24T09:05:58.851Z,22.98
2023-04-24T09:08:27.599Z,22.90
2023-04-24T09:10:54.544Z,23.67
2023-04-24T09:13:21.999Z,23.88
2023-04-24T09:15:48.873Z,21.95
2023-04-24T09:18:15.844Z,22.60
2023-04-24T09:21:09.167Z,22.25
2023-04-24T09:23:36.341Z,21.50
2023-04-24T09:26:07.582Z,21.17
2023-04-24T09:28:40.509Z,20.95
2023-04-24T09:31:19.421Z,21.42
2023-04-24T09:34:05.757Z,20.73
2023-04-24T09:36:40.215Z,21.25
2023-04-24T09:39:11.812Z,20.50
2023-04-24T09:41:52.933Z,19.70
2023-04-24T09:44:24.241Z,14.18
2023-04-24T09:46:57.260Z,12.05
2023-04-24T09:52:11.144Z,11.35
2023-04-24T09:54:39.373Z,10.55
2023-04-24T09:57:09.139Z,10.90
2023-04-24T09:59:37.465Z,9.50
2023-04-24T10:02:21.151Z,9.27
2023-04-24T10:05:00.179Z,9.05
2023-04-24T10:07:28.003Z,8.82
2023-04-24T10:09:56.136Z,8.65
2023-04-24T10:12:24.079Z,8.63
2023-04-24T10:14:52.548Z,8.15
2023-04-24T10:17:21.914Z,8.55
2023-04-24T10:19:49.433Z,8.75
2023-04-24T10:22:18.608Z,8.43
2023-04-24T10:24:49.070Z,8.25
2023-04-24T10:27:17.440Z,7.85
2023-04-24T10:29:48.084Z,7.90
2023-04-24T10:32:14.986Z,8.30
2023-04-24T10:34:43.353Z,8.18
2023-04-24T10:37:11.677Z,7.95
2023-04-24T10:39:41.248Z,7.78
2023-04-24T10:42:29.220Z,8.45
2023-04-24T10:44:57.188Z,8.45
2023-04-24T10:47:24.568Z,8.02
2023-04-24T10:49:52.984Z,7.30
2023-04-24T10:52:21.584Z,7.28
2023-04-24T10:54:50.351Z,7.47
2023-04-24T10:57:23.352Z,7.00
2023-04-24T11:02:41.251Z,8.05
2023-04-24T11:05:08.908Z,7.82
2023-04-24T11:08:14.163Z,7.78
2023-04-24T11:10:47.545Z,8.05
2023-04-24T11:13:22.152Z,6.93
2023-04-24T11:16:25.427Z,6.78
2023-04-24T11:19:09.263Z,6.93
2023-04-24T11:21:49.959Z,5.70
2023-04-24T11:24:40.822Z,6.13
2023-04-24T11:27:18.969Z,5.90
2023-04-24T11:29:58.417Z,6.03
2023-04-24T11:32:28.772Z,5.82
2023-04-24T11:35:01.560Z,5.85
2023-04-24T11:37:34.243Z,5.60
2023-04-24T11:42:34.260Z,5.18
2023-04-24T11:45:02.948Z,5.40
2023-04-24T11:47:34.454Z,5.18
2023-04-24T11:50:02.839Z,5.03
2023-04-24T11:52:31.860Z,5.28
2023-04-24T11:54:59.273Z,5.60
2023-04-24T11:57:29.876Z,6.10
2023-04-24T11:59:56.927Z,6.53
2023-04-24T12:02:26.395Z,6.05
2023-04-24T12:04:55.205Z,6.20
2023-04-24T12:07:24.088Z,5.82
2023-04-24T12:09:59.416Z,6.00
2023-04-24T12:12:29.035Z,6.47
2023-04-24T12:14:59.204Z,6.50
2023-04-24T12:17:32.522Z,6.70
2023-04-24T12:22:48.568Z,6.97
2023-04-24T12:25:18.692Z,7.25
2023-04-24T12:27:47.358Z,6.00
2023-04-24T12:30:17.246Z,7.20
2023-04-24T12:32:50.477Z,6.93
2023-04-24T12:35:24.520Z,6.50
2023-04-24T12:37:51.496Z,6.57
2023-04-24T12:40:20.970Z,6.05
2023-04-24T12:42:50.645Z,5.88
2023-04-24T12:45:20.646Z,5.38
2023-04-24T12:47:49.500Z,5.30
2023-04-24T12:50:17.415Z,5.30
2023-04-24T12:52:45.645Z,5.00
2023-04-24T12:55:13.314Z,5.00
2023-04-24T12:57:41.236Z,5.03
2023-04-24T13:00:10.686Z,5.47
2023-04-24T13:02:40.901Z,5.50
2023-04-24T13:05:08.586Z,5.10
2023-04-24T13:07:36.365Z,5.45
2023-04-24T13:10:03.388Z,4.88
2023-04-24T13:12:30.557Z,5.10
2023-04-24T13:14:59.664Z,5.93
2023-04-24T13:17:26.638Z,4.70
2023-04-24T13:19:56.407Z,6.05
2023-04-24T13:22:23.515Z,4.97
2023-04-24T13:24:50.813Z,5.40
2023-04-24T13:27:18.683Z,5.97
2023-04-24T13:29:47.591Z,5.00
2023-04-24T13:32:15.117Z,5.10
2023-04-24T13:34:42.338Z,5.72
2023-04-24T13:37:09.454Z,5.63
2023-04-24T13:39:36.666Z,5.85
2023-04-24T13:42:05.288Z,5.18
2023-04-24T13:44:34.505Z,5.25
2023-04-24T13:47:01.677Z,5.30
2023-04-24T13:49:29.295Z,5.35
2023-04-24T13:51:57.689Z,5.47
2023-04-24T13:54:26.767Z,6.28
2023-04-24T13:56:56.876Z,5.85
2023-04-24T13:59:23.843Z,5.60
2023-04-24T14:01:53.200Z,6.50
2023-04-24T14:04:20.713Z,6.03
2023-04-24T14:06:47.821Z,6.47
2023-04-24T14:09:14.811Z,6.70
2023-04-24T14:11:41.965Z,6.03
2023-04-24T14:14:09.824Z,5.68
2023-04-24T14:16:37.294Z,5.25
2023-04-24T14:19:04.351Z,5.60
2023-04-24T14:21:31.484Z,5.65
2023-04-24T14:23:58.650Z,6.00
2023-04-24T14:26:28.738Z,5.80
2023-04-24T14:29:07.178Z,5.40
2023-04-24T14:31:38.467Z,5.82
2023-04-24T14:34:05.605Z,5.30
2023-04-24T14:36:35.364Z,5.43
2023-04-24T14:39:07.161Z,5.20
2023-04-24T14:41:38.229Z,5.40
2023-04-24T14:44:05.938Z,8.23
2023-04-24T14:46:33.345Z,5.05
2023-04-24T14:49:00.508Z,5.57
2023-04-24T14:51:27.904Z,5.30
2023-04-24T14:53:54.906Z,5.32
2023-04-24T14:56:21.903Z,6.20
2023-04-24T14:58:48.784Z,7.60
2023-04-24T15:01:17.371Z,5.60
2023-04-24T15:03:45.452Z,5.80
2023-04-24T15:06:12.940Z,5.70
2023-04-24T15:08:39.849Z,6.15
2023-04-24T15:11:08.387Z,6.22
2023-04-24T15:13:35.385Z,5.45
2023-04-24T15:16:03.224Z,5.75
2023-04-24T15:18:30.465Z,11.07
2023-04-24T15:20:57.897Z,5.00
2023-04-24T15:23:24.962Z,5.97
2023-04-24T15:25:52.008Z,4.45
2023-04-24T15:28:18.981Z,5.70
2023-04-24T15:30:46.195Z,5.07
2023-04-24T15:33:13.478Z,7.03
2023-04-24T15:35:41.698Z,10.48
2023-04-24T15:38:09.088Z,8.75
2023-04-24T15:40:36.646Z,14.00
2023-04-24T15:43:03.935Z,8.30
2023-04-24T15:45:31.330Z,9.80
2023-04-24T15:47:58.533Z,5.32
2023-04-24T15:50:27.110Z,6.32
2023-04-24T15:52:54.087Z,4.80
2023-04-24T15:55:21.169Z,5.45
2023-04-24T15:57:48.112Z,5.25
2023-04-24T16:00:16.136Z,5.55
2023-04-24T16:02:44.416Z,6.20
2023-04-24T16:05:11.788Z,6.80
2023-04-24T16:07:40.251Z,7.57
2023-04-24T16:10:08.030Z,6.97
2023-04-24T16:12:35.018Z,7.20
2023-04-24T16:15:02.060Z,8.68
2023-04-24T16:17:29.049Z,8.95
2023-04-24T16:19:56.022Z,8.85
2023-04-24T16:22:23.018Z,6.45
2023-04-24T16:24:49.941Z,7.20
2023-04-24T16:27:16.898Z,11.98
2023-04-24T16:29:44.074Z,6.40
2023-04-24T16:32:11.200Z,9.27
2023-04-24T16:34:38.238Z,15.90
2023-04-24T16:37:06.577Z,7.47
2023-04-24T16:39:34.350Z,12.35
2023-04-24T16:42:01.994Z,21.40
2023-04-24T16:44:29.077Z,24.15
2023-04-24T16:46:56.886Z,28.88
2023-04-24T16:49:24.294Z,20.98
2023-04-24T16:52:00.502Z,11.57
2023-04-24T16:54:27.806Z,47.28
2023-04-24T16:56:55.424Z,16.38
2023-04-24T16:59:24.497Z,5.72
2023-04-24T17:01:51.561Z,4.53
2023-04-24T17:04:18.576Z,3.80
2023-04-24T17:06:46.694Z,3.67
2023-04-24T17:09:15.742Z,3.33
2023-04-24T17:11:42.885Z,3.92
2023-04-24T17:14:10.222Z,4.55
2023-04-24T17:16:38.575Z,4.53
2023-04-24T17:19:06.191Z,4.25
2023-04-24T17:21:33.539Z,5.65
2023-04-24T17:24:00.721Z,4.55
2023-04-24T17:26:29.120Z,4.97
2023-04-24T17:28:56.450Z,4.60
2023-04-24T17:31:26.090Z,4.55
2023-04-24T17:33:53.295Z,5.18
2023-04-24T17:36:21.798Z,4.72
2023-04-24T17:38:50.296Z,4.93
2023-04-24T17:41:20.389Z,4.43
2023-04-24T17:43:50.460Z,4.60
2023-04-24T17:46:18.020Z,5.18
2023-04-24T17:48:47.017Z,4.93
2023-04-24T17:51:19.041Z,5.57
2023-04-24T17:53:46.516Z,5.18
2023-04-24T17:56:15.522Z,7.10
2023-04-24T17:58:44.020Z,6.00
2023-04-24T18:01:11.596Z,5.97
2023-04-24T18:03:39.866Z,6.78
2023-04-24T18:06:10.237Z,7.47
2023-04-24T18:08:38.071Z,7.68
2023-04-24T18:11:07.467Z,8.55
2023-04-24T18:13:34.709Z,7.35
2023-04-24T18:16:02.050Z,7.28
2023-04-24T18:18:31.953Z,8.57
2023-04-24T18:21:00.274Z,6.75
2023-04-24T18:23:27.764Z,7.15
2023-04-24T18:25:56.089Z,6.55
2023-04-24T18:28:23.371Z,6.70
2023-04-24T18:30:53.030Z,6.03
2023-04-24T18:33:21.532Z,5.40
2023-04-24T18:35:52.381Z,5.22
2023-04-24T18:38:20.535Z,4.53
2023-04-24T18:40:49.107Z,4.85
2023-04-24T18:43:17.223Z,5.43
2023-04-24T18:45:46.663Z,5.50
2023-04-24T18:48:14.437Z,6.28
2023-04-24T18:50:41.832Z,6.93
2023-04-24T18:53:10.029Z,7.32
2023-04-24T18:55:38.540Z,5.50
2023-04-24T18:58:07.171Z,3.97
2023-04-24T19:00:40.286Z,3.75
2023-04-24T19:05:38.050Z,4.00
2023-04-24T19:08:09.730Z,3.80
2023-04-24T19:10:37.222Z,3.80
2023-04-24T19:13:06.407Z,3.75
2023-04-24T19:15:37.788Z,3.95
2023-04-24T19:18:11.180Z,4.78
2023-04-24T19:20:38.704Z,4.50
2023-04-24T19:23:07.411Z,3.80
2023-04-24T19:25:35.819Z,3.78
2023-04-24T19:28:03.461Z,4.13
2023-04-24T19:30:30.836Z,5.10
2023-04-24T19:33:02.410Z,5.70
2023-04-24T19:35:29.964Z,5.40
2023-04-24T19:37:57.793Z,4.72
2023-04-24T19:40:35.310Z,4.50
2023-04-24T19:43:14.824Z,4.60
2023-04-24T19:45:43.546Z,3.65
2023-04-24T19:48:11.217Z,3.72
2023-04-24T19:50:39.587Z,4.30
2023-04-24T19:53:07.281Z,4.40
2023-04-24T19:55:34.642Z,4.68
2023-04-24T19:58:04.908Z,4.90
2023-04-24T20:00:36.310Z,4.93
2023-04-24T20:03:04.834Z,5.03
2023-04-24T20:05:32.288Z,5.32
2023-04-24T20:08:01.086Z,5.50
2023-04-24T20:10:28.917Z,5.03
2023-04-24T20:12:58.019Z,5.30
2023-04-24T20:18:13.390Z,6.85
2023-04-24T20:20:42.804Z,5.97
2023-04-24T20:23:14.837Z,5.50
2023-04-24T20:25:44.407Z,5.47
2023-04-24T20:28:12.168Z,5.93
2023-04-24T20:30:43.233Z,5.75
2023-04-24T20:33:11.850Z,5.97
2023-04-24T20:35:40.351Z,5.50
2023-04-24T20:38:11.513Z,6.40
2023-04-24T20:40:53.777Z,6.85
2023-04-24T20:43:28.017Z,7.47
2023-04-24T20:45:58.258Z,9.30
2023-04-24T20:48:26.857Z,9.27
2023-04-24T20:50:54.735Z,9.00
2023-04-24T20:53:22.357Z,7.93
2023-04-24T20:55:51.202Z,11.02
2023-04-24T20:58:21.143Z,12.45
2023-04-24T21:00:48.792Z,10.85
2023-04-24T21:03:17.384Z,12.80
2023-04-24T21:05:44.696Z,10.45
2023-04-24T21:08:12.877Z,9.70
2023-04-24T21:10:39.789Z,9.13
2023-04-24T21:13:06.830Z,7.90
2023-04-24T21:15:35.379Z,8.07
2023-04-24T21:18:11.842Z,7.93
2023-04-24T21:20:39.150Z,8.00
2023-04-24T21:23:06.371Z,8.43
2023-04-24T21:25:34.894Z,9.95
2023-04-24T21:28:03.595Z,10.48
2023-04-24T21:30:31.380Z,11.00
2023-04-24T21:32:58.614Z,11.95
2023-04-24T21:35:25.747Z,9.98
2023-04-24T21:37:52.902Z,9.57
2023-04-24T21:40:20.216Z,9.50
2023-04-24T21:42:47.186Z,9.73
2023-04-24T21:45:14.314Z,11.48
2023-04-24T21:47:41.235Z,10.45
2023-04-24T21:50:09.338Z,10.23
2023-04-24T21:52:36.282Z,10.75
2023-04-24T21:55:03.613Z,11.45
2023-04-24T21:57:30.968Z,11.40
2023-04-24T21:59:57.977Z,12.57
2023-04-24T22:02:24.953Z,13.68
2023-04-24T22:04:52.868Z,11.68
2023-04-24T22:07:19.989Z,12.35
2023-04-24T22:09:46.847Z,13.88
2023-04-24T22:12:13.753Z,14.15
2023-04-24T22:14:40.622Z,13.27
2023-04-24T22:17:09.531Z,13.90
2023-04-24T22:19:36.414Z,13.88
2023-04-24T22:22:03.877Z,14.63
2023-04-24T22:24:30.850Z,12.27
2023-04-24T22:26:57.729Z,14.13
2023-04-24T22:29:24.630Z,13.65
2023-04-24T22:31:51.761Z,12.82
2023-04-24T22:34:19.700Z,12.95
2023-04-24T22:36:46.555Z,12.77
2023-04-24T22:39:15.859Z,10.65
2023-04-24T22:41:43.367Z,11.52
2023-04-24T22:44:11.407Z,10.27
2023-04-24T22:46:38.351Z,9.55
2023-04-24T22:49:05.345Z,9.18
2023-04-24T22:51:33.473Z,9.77
2023-04-24T22:54:05.255Z,8.80
2023-04-24T22:56:33.602Z,8.90
2023-04-24T22:59:00.908Z,9.10
2023-04-24T23:01:27.876Z,9.02
2023-04-24T23:03:55.135Z,8.52
2023-04-24T23:06:22.335Z,9.07
2023-04-24T23:08:49.425Z,8.48
2023-04-24T23:11:16.362Z,8.85
2023-04-24T23:13:44.411Z,8.18
2023-04-24T23:16:11.369Z,8.15
2023-04-24T23:18:38.302Z,7.95
2023-04-24T23:21:05.575Z,7.85
2023-04-24T23:23:32.806Z,7.75
2023-04-24T23:25:59.888Z,7.95
2023-04-24T23:28:26.997Z,17.88
2023-04-24T23:30:53.902Z,7.15
2023-04-24T23:33:20.805Z,6.57
2023-04-24T23:35:47.900Z,7.03
2023-04-24T23:38:14.728Z,6.70
2023-04-24T23:40:41.764Z,7.05
2023-04-24T23:43:08.962Z,6.82
2023-04-24T23:45:36.029Z,6.18
2023-04-24T23:48:04.544Z,5.93
2023-04-24T23:50:31.650Z,6.35
2023-04-24T23:52:59.140Z,5.65
2023-04-24T23:55:26.094Z,5.85
2023-04-24T23:57:53.002Z,5.80
